createdAt,value
2022-12-24T00:01:09.973Z,94628.44
2022-12-24T00:03:38.941Z,94631.16
2022-12-24T00:06:07.656Z,94623.75
2022-12-24T00:08:36.944Z,94646.66
2022-12-24T00:11:04.785Z,94642.28
2022-12-24T00:13:32.582Z,94664.31
2022-12-24T00:16:01.008Z,94641.81
2022-12-24T00:18:29.007Z,94657.03
2022-12-24T00:20:56.818Z,94686.44
2022-12-24T00:23:25.007Z,94673.31
2022-12-24T00:25:54.178Z,94673.75
2022-12-24T00:28:22.351Z,94652.31
2022-12-24T00:30:50.141Z,94666.94
2022-12-24T00:33:24.052Z,94657.91
2022-12-24T00:35:53.527Z,94667.34
2022-12-24T00:38:21.434Z,94668.97
2022-12-24T00:40:49.198Z,94655.72
2022-12-24T00:43:18.311Z,94669.66
2022-12-24T00:45:46.137Z,94701.44
2022-12-24T00:48:13.939Z,94692.41
2022-12-24T00:50:41.748Z,94703.09
2022-12-24T00:53:09.506Z,94697.81
2022-12-24T00:55:37.237Z,94702.47
2022-12-24T00:58:04.998Z,94697.13
2022-12-24T01:00:34.201Z,94718.25
2022-12-24T01:03:02.318Z,94722.63
2022-12-24T01:05:29.248Z,94701.97
2022-12-24T01:07:57.062Z,94713.63
2022-12-24T01:10:24.825Z,94728.41
2022-12-24T01:12:52.623Z,94745.41
2022-12-24T01:15:20.454Z,94735.16
2022-12-24T01:17:49.593Z,94747.66
2022-12-24T01:20:18.794Z,94737.75
2022-12-24T01:22:46.923Z,94729.91
2022-12-24T01:25:16.065Z,94730.31
2022-12-24T01:27:43.841Z,94732.78
2022-12-24T01:30:14.953Z,94741.69
2022-12-24T01:32:42.835Z,94750.75
2022-12-24T01:35:12.546Z,94761.19
2022-12-24T01:37:41.009Z,94749.34
2022-12-24T01:40:32.299Z,94766.53
2022-12-24T01:43:17.573Z,94766.94
2022-12-24T01:45:49.702Z,94779.56
2022-12-24T01:48:28.405Z,94786.25
2022-12-24T01:51:02.792Z,94802.22
2022-12-24T01:53:32.643Z,94791.38
2022-12-24T01:56:00.718Z,94799.84
2022-12-24T01:58:29.155Z,94799.84
2022-12-24T02:00:57.056Z,94804.56
2022-12-24T02:03:24.945Z,94791.16
2022-12-24T02:05:55.933Z,94806.56
2022-12-24T02:08:39.909Z,94800.84
2022-12-24T02:11:15.925Z,94805.97
2022-12-24T02:13:45.896Z,94817.03
2022-12-24T02:16:26.207Z,94802.22
2022-12-24T02:19:01.189Z,94834.16
2022-12-24T02:21:45.986Z,94824.53
2022-12-24T02:25:02.982Z,94819.97
2022-12-24T02:27:37.940Z,94833.00
2022-12-24T02:30:12.038Z,94809.72
2022-12-24T02:33:12.596Z,94821.34
2022-12-24T02:35:50.245Z,94832.41
2022-12-24T02:38:24.785Z,94836.63
2022-12-24T02:40:57.284Z,94855.91
2022-12-24T02:43:30.942Z,94857.84
2022-12-24T02:46:04.003Z,94850.94
2022-12-24T02:48:33.331Z,94860.22
2022-12-24T02:51:06.127Z,94847.41
2022-12-24T02:53:35.073Z,94849.22
2022-12-24T02:56:30.023Z,94851.81
2022-12-24T02:59:15.888Z,94868.72
2022-12-24T03:01:58.035Z,94855.31
2022-12-24T03:04:41.519Z,94853.97
2022-12-24T03:07:20.763Z,94849.00
2022-12-24T03:10:15.829Z,94863.97
2022-12-24T03:12:46.331Z,94857.69
2022-12-24T03:15:17.099Z,94862.06
2022-12-24T03:17:50.205Z,94876.44
2022-12-24T03:20:22.139Z,94861.84
2022-12-24T03:22:50.105Z,94865.81
2022-12-24T03:25:18.174Z,94876.66
2022-12-24T03:27:46.949Z,94860.09
2022-12-24T03:30:16.063Z,94860.28
2022-12-24T03:32:43.900Z,94854.56
2022-12-24T03:35:13.152Z,94869.16
2022-12-24T03:37:41.279Z,94867.56
2022-12-24T03:40:10.262Z,94869.97
2022-12-24T03:42:38.095Z,94886.31
2022-12-24T03:45:06.932Z,94886.91
2022-12-24T03:47:34.689Z,94890.28
2022-12-24T03:50:02.579Z,94879.81
2022-12-24T03:52:31.742Z,94886.28
2022-12-24T03:54:59.690Z,94881.19
2022-12-24T03:57:27.488Z,94869.75
2022-12-24T03:59:55.330Z,94882.97
2022-12-24T04:02:23.411Z,94896.19
2022-12-24T04:04:51.341Z,94892.25
2022-12-24T04:07:19.196Z,94904.06
2022-12-24T04:09:48.314Z,94912.34
2022-12-24T04:12:16.132Z,94918.06
2022-12-24T04:14:43.899Z,94916.06
2022-12-24T04:17:11.678Z,94923.75
2022-12-24T04:19:39.661Z,94938.53
2022-12-24T04:22:07.477Z,94925.97
2022-12-24T04:24:35.465Z,94928.72
2022-12-24T04:27:04.849Z,94937.41
2022-12-24T04:29:32.637Z,94929.31
2022-12-24T04:32:00.488Z,94933.41
2022-12-24T04:34:28.488Z,94950.81
2022-12-24T04:36:56.339Z,94959.06
2022-12-24T04:39:24.273Z,94936.41
2022-12-24T04:41:52.149Z,94931.88
2022-12-24T04:44:21.367Z,94943.31
2022-12-24T04:46:49.128Z,94945.28
2022-12-24T04:49:16.903Z,94958.47
2022-12-24T04:51:44.779Z,94960.25
2022-12-24T04:54:12.528Z,94956.50
2022-12-24T04:56:40.380Z,94968.75
2022-12-24T04:59:08.214Z,94967.75
2022-12-24T05:01:37.481Z,94965.59
2022-12-24T05:04:06.870Z,94959.47
2022-12-24T05:06:35.241Z,94963.81
2022-12-24T05:09:03.076Z,94961.41
2022-12-24T05:11:32.129Z,94959.84
2022-12-24T05:13:59.938Z,94957.69
2022-12-24T05:16:28.349Z,94969.09
2022-12-24T05:18:57.579Z,94963.81
2022-12-24T05:21:26.471Z,94972.31
2022-12-24T05:24:12.586Z,94976.22
2022-12-24T05:26:42.612Z,94973.25
2022-12-24T05:29:12.129Z,94976.22
2022-12-24T05:31:40.503Z,94972.47
2022-12-24T05:34:10.455Z,94978.78
2022-12-24T05:36:38.994Z,94988.66
2022-12-24T05:39:11.440Z,94986.88
2022-12-24T05:41:39.509Z,94986.28
2022-12-24T05:44:07.314Z,94993.78
2022-12-24T05:46:35.168Z,94995.94
2022-12-24T05:49:03.006Z,95003.84
2022-12-24T05:51:32.237Z,94999.69
2022-12-24T05:54:00.098Z,95014.66
2022-12-24T05:56:28.151Z,95006.00
2022-12-24T05:58:56.239Z,95017.63
2022-12-24T06:01:24.307Z,95003.03
2022-12-24T06:03:52.715Z,94997.09
2022-12-24T06:06:22.474Z,95008.53
2022-12-24T06:08:53.044Z,95017.22
2022-12-24T06:11:22.646Z,95015.63
2022-12-24T06:13:50.911Z,95018.38
2022-12-24T06:16:20.629Z,95026.66
2022-12-24T06:18:48.802Z,95033.16
2022-12-24T06:21:17.219Z,95032.94
2022-12-24T06:23:46.696Z,95015.59
2022-12-24T06:26:17.935Z,95021.31
2022-12-24T06:28:48.353Z,95025.25
2022-12-24T06:31:18.269Z,95021.31
2022-12-24T06:33:46.169Z,95017.97
2022-12-24T06:36:19.752Z,95032.34
2022-12-24T06:38:48.409Z,95032.94
2022-12-24T06:41:18.320Z,95039.63
2022-12-24T06:43:47.050Z,95040.00
2022-12-24T06:46:15.273Z,95040.81
2022-12-24T06:48:44.138Z,95048.50
2022-12-24T06:51:12.488Z,95052.41
2022-12-24T06:53:40.579Z,95040.81
2022-12-24T06:56:10.101Z,95038.41
2022-12-24T06:58:40.632Z,95055.09
2022-12-24T07:01:10.605Z,95064.38
2022-12-24T07:03:39.086Z,95059.25
2022-12-24T07:06:07.845Z,95061.44
2022-12-24T07:08:36.375Z,95060.03
2022-12-24T07:11:04.443Z,95057.91
2022-12-24T07:13:34.266Z,95068.59
2022-12-24T07:16:05.436Z,95074.28
2022-12-24T07:18:34.151Z,95079.78
2022-12-24T07:21:03.838Z,95073.31
2022-12-24T07:23:32.292Z,95081.59
2022-12-24T07:26:02.791Z,95083.38
2022-12-24T07:28:30.920Z,95086.84
2022-12-24T07:30:59.056Z,95088.47
2022-12-24T07:33:28.409Z,95087.06
2022-12-24T07:36:00.947Z,95099.53
2022-12-24T07:38:29.610Z,95089.81
2022-12-24T07:40:57.833Z,95100.31
2022-12-24T07:43:26.050Z,95110.03
2022-12-24T07:45:57.287Z,95115.19
2022-12-24T07:48:25.201Z,95130.81
2022-12-24T07:50:54.618Z,95129.84
2022-12-24T07:53:23.019Z,95122.22
2022-12-24T07:55:51.170Z,95123.75
2022-12-24T07:58:19.059Z,95125.97
2022-12-24T08:00:46.904Z,95138.56
2022-12-24T08:03:18.367Z,95149.53
2022-12-24T08:05:47.121Z,95146.25
2022-12-24T08:08:16.585Z,95150.19
2022-12-24T08:10:46.397Z,95166.56
2022-12-24T08:13:14.996Z,95158.91
2022-12-24T08:15:43.521Z,95163.56
2022-12-24T08:18:12.357Z,95175.16
2022-12-24T08:20:41.325Z,95185.03
2022-12-24T08:23:10.306Z,95184.47
2022-12-24T08:25:43.025Z,95189.72
2022-12-24T08:28:11.324Z,95188.38
2022-12-24T08:30:39.107Z,95193.31
2022-12-24T08:33:07.001Z,95178.00
2022-12-24T08:35:34.956Z,95193.56
2022-12-24T08:38:02.760Z,95199.09
2022-12-24T08:40:30.557Z,95200.22
2022-12-24T08:42:59.790Z,95193.16
2022-12-24T08:45:27.814Z,95196.50
2022-12-24T08:47:55.678Z,95201.59
2022-12-24T08:50:23.455Z,95207.56
2022-12-24T08:52:51.241Z,95210.31
2022-12-24T08:55:19.314Z,95213.81
2022-12-24T08:57:47.218Z,95216.56
2022-12-24T09:00:17.387Z,95214.81
2022-12-24T09:02:45.434Z,95235.56
2022-12-24T09:05:13.481Z,95261.44
2022-12-24T09:07:41.263Z,95238.09
2022-12-24T09:10:10.347Z,95247.72
2022-12-24T09:12:38.673Z,95248.56
2022-12-24T09:15:08.216Z,95250.66
2022-12-24T09:17:37.938Z,95247.69
2022-12-24T09:20:07.806Z,95261.91
2022-12-24T09:22:37.115Z,95261.63
2022-12-24T09:25:07.292Z,95277.00
2022-12-24T09:27:35.348Z,95275.50
2022-12-24T09:30:03.322Z,95268.09
2022-12-24T09:32:31.297Z,95274.75
2022-12-24T09:35:00.659Z,95261.69
2022-12-24T09:37:28.547Z,95270.38
2022-12-24T09:39:56.320Z,95269.31
2022-12-24T09:42:33.570Z,95275.34
2022-12-24T09:45:06.790Z,95272.91
2022-12-24T09:47:39.607Z,95267.72
2022-12-24T09:50:34.062Z,95273.09
2022-12-24T09:53:05.869Z,95262.13
2022-12-24T09:55:37.288Z,95254.31
2022-12-24T09:58:11.946Z,95257.81
2022-12-24T10:00:43.207Z,95267.38
2022-12-24T10:03:17.728Z,95253.22
2022-12-24T10:05:56.985Z,95253.22
2022-12-24T10:08:34.641Z,95246.69
2022-12-24T10:11:12.412Z,95258.88
2022-12-24T10:14:01.036Z,95250.25
2022-12-24T10:16:40.654Z,95248.47
2022-12-24T10:19:18.268Z,95252.19
2022-12-24T10:21:58.440Z,95253.78
2022-12-24T10:24:32.420Z,95251.81
2022-12-24T10:27:04.027Z,95254.09
2022-12-24T10:29:36.779Z,95260.38
2022-12-24T10:32:18.234Z,95268.59
2022-12-24T10:34:53.458Z,95261.72
2022-12-24T10:37:25.666Z,95265.06
2022-12-24T10:39:53.909Z,95259.38
2022-12-24T10:42:24.620Z,95254.63
2022-12-24T10:44:59.635Z,95254.44
2022-12-24T10:47:28.750Z,95251.88
2022-12-24T10:50:04.554Z,95249.84
2022-12-24T10:52:36.630Z,95247.06
2022-12-24T10:55:13.297Z,95253.41
2022-12-24T10:57:41.718Z,95260.56
2022-12-24T11:00:20.722Z,95260.38
2022-12-24T11:02:49.688Z,95273.97
2022-12-24T11:05:30.781Z,95264.75
2022-12-24T11:08:03.071Z,95258.72
2022-12-24T11:10:32.079Z,95264.56
2022-12-24T11:13:35.711Z,95264.47
2022-12-24T11:15:49.450Z,95263.41
2022-12-24T11:21:09.526Z,95276.31
2022-12-24T11:23:38.722Z,95269.41
2022-12-24T11:26:06.790Z,95269.25
2022-12-24T11:28:35.870Z,95267.28
2022-12-24T11:31:08.978Z,95264.72
2022-12-24T11:33:48.707Z,95250.50
2022-12-24T11:36:19.099Z,95252.50
2022-12-24T11:38:53.969Z,95249.91
2022-12-24T11:41:23.580Z,95251.88
2022-12-24T11:43:53.389Z,95240.06
2022-12-24T11:46:38.452Z,95238.03
2022-12-24T11:49:24.557Z,95248.81
2022-12-24T11:52:24.438Z,95245.66
2022-12-24T11:55:16.633Z,95257.84
2022-12-24T11:57:54.941Z,95255.41
2022-12-24T12:00:22.875Z,95249.50
2022-12-24T12:02:52.758Z,95245.59
2022-12-24T12:05:24.982Z,95240.41
2022-12-24T12:07:57.321Z,95250.66
2022-12-24T12:10:29.807Z,95233.19
2022-12-24T12:13:02.095Z,95231.63
2022-12-24T12:15:35.088Z,95249.97
2022-12-24T12:18:09.622Z,95247.38
2022-12-24T12:20:42.442Z,95240.66
2022-12-24T12:23:16.618Z,95236.59
2022-12-24T12:25:52.102Z,95234.81
2022-12-24T12:28:23.685Z,95239.97
2022-12-24T12:31:01.790Z,95241.06
2022-12-24T12:33:36.311Z,95244.63
2022-12-24T12:36:09.738Z,95247.13
2022-12-24T12:38:37.712Z,95259.53
2022-12-24T12:41:32.119Z,95264.09
2022-12-24T12:44:38.521Z,95254.06
2022-12-24T12:47:27.085Z,95273.78
2022-12-24T12:50:02.551Z,95267.84
2022-12-24T12:52:44.303Z,95269.81
2022-12-24T12:55:25.680Z,95284.75
2022-12-24T12:57:59.856Z,95281.00
2022-12-24T13:00:30.686Z,95275.47
2022-12-24T13:03:22.778Z,95284.50
2022-12-24T13:06:07.369Z,95283.47
2022-12-24T13:08:57.423Z,95277.63
2022-12-24T13:11:45.584Z,95285.47
2022-12-24T13:14:29.922Z,95284.31
2022-12-24T13:17:26.329Z,95270.75
2022-12-24T13:20:19.720Z,95275.84
2022-12-24T13:22:55.412Z,95286.88
2022-12-24T13:25:28.294Z,95290.06
2022-12-24T13:27:59.019Z,95297.34
2022-12-24T13:30:40.420Z,95302.06
2022-12-24T13:33:11.661Z,95297.88
2022-12-24T13:35:59.478Z,95290.31
2022-12-24T13:38:40.229Z,95304.50
2022-12-24T13:41:41.888Z,95304.69
2022-12-24T13:44:19.658Z,95297.56
2022-12-24T13:46:52.026Z,95306.81
2022-12-24T13:49:26.873Z,95304.44
2022-12-24T13:52:07.881Z,95301.94
2022-12-24T13:54:38.625Z,95302.94
2022-12-24T13:57:30.645Z,95315.19
2022-12-24T14:00:02.232Z,95311.66
2022-12-24T14:02:48.591Z,95312.38
2022-12-24T14:05:23.533Z,95323.56
2022-12-24T14:07:52.456Z,95318.38
2022-12-24T14:10:23.932Z,95317.94
2022-12-24T14:12:53.395Z,95329.22
2022-12-24T14:16:01.835Z,95338.44
2022-12-24T14:18:34.775Z,95323.69
2022-12-24T14:21:03.401Z,95321.91
2022-12-24T14:23:46.186Z,95331.13
2022-12-24T14:26:17.762Z,95321.38
2022-12-24T14:28:49.524Z,95326.31
2022-12-24T14:31:19.856Z,95323.25
2022-12-24T14:33:49.247Z,95320.00
2022-12-24T14:36:23.154Z,95319.56
2022-12-24T14:38:51.429Z,95320.56
2022-12-24T14:41:31.242Z,95326.34
2022-12-24T14:44:10.362Z,95329.06
2022-12-24T14:46:45.010Z,95319.31
2022-12-24T14:49:25.188Z,95336.06
2022-12-24T14:52:01.621Z,95332.91
2022-12-24T14:54:38.557Z,95331.50
2022-12-24T14:57:16.230Z,95343.66
2022-12-24T14:59:47.904Z,95337.94
2022-12-24T15:02:39.110Z,95338.28
2022-12-24T15:05:14.680Z,95342.97
2022-12-24T15:07:47.757Z,95343.84
2022-12-24T15:10:28.680Z,95345.38
2022-12-24T15:12:58.050Z,95341.75
2022-12-24T15:15:26.165Z,95336.47
2022-12-24T15:17:55.381Z,95335.41
2022-12-24T15:20:26.749Z,95344.22
2022-12-24T15:22:57.085Z,95339.09
2022-12-24T15:25:27.668Z,95324.44
2022-12-24T15:27:55.491Z,95327.38
2022-12-24T15:30:26.255Z,95331.69
2022-12-24T15:32:55.825Z,95325.88
2022-12-24T15:35:56.027Z,95331.59
2022-12-24T15:38:27.781Z,95334.69
2022-12-24T15:40:56.299Z,95335.38
2022-12-24T15:43:25.116Z,95337.41
2022-12-24T15:45:53.954Z,95341.56
2022-12-24T15:48:25.283Z,95342.16
2022-12-24T15:50:57.792Z,95350.00
2022-12-24T15:53:30.992Z,95346.84
2022-12-24T15:56:06.028Z,95352.91
2022-12-24T15:58:35.910Z,95350.34
2022-12-24T16:01:07.277Z,95348.31
2022-12-24T16:03:37.889Z,95352.03
2022-12-24T16:06:08.859Z,95337.84
2022-12-24T16:08:39.035Z,95346.50
2022-12-24T16:11:19.057Z,95336.16
2022-12-24T16:14:02.301Z,95342.53
2022-12-24T16:16:36.275Z,95340.31
2022-12-24T16:19:06.125Z,95335.53
2022-12-24T16:21:37.978Z,95333.34
2022-12-24T16:24:09.209Z,95343.72
2022-12-24T16:26:38.166Z,95347.06
2022-12-24T16:29:06.142Z,95356.50
2022-12-24T16:31:37.057Z,95360.47
2022-12-24T16:34:06.857Z,95357.56
2022-12-24T16:36:36.004Z,95361.44
2022-12-24T16:39:21.149Z,95361.59
2022-12-24T16:42:06.351Z,95351.56
2022-12-24T16:44:34.191Z,95354.75
2022-12-24T16:47:02.080Z,95355.88
2022-12-24T16:49:30.866Z,95362.56
2022-12-24T16:52:00.193Z,95365.91
2022-12-24T16:54:30.071Z,95363.53
2022-12-24T16:56:58.029Z,95361.94
2022-12-24T16:59:26.212Z,95370.56
2022-12-24T17:01:54.217Z,95376.84
2022-12-24T17:04:22.168Z,95376.66
2022-12-24T17:06:50.805Z,95379.03
2022-12-24T17:09:20.027Z,95362.50
2022-12-24T17:11:47.927Z,95370.22
2022-12-24T17:14:20.342Z,95361.31
2022-12-24T17:16:48.828Z,95363.19
2022-12-24T17:19:18.055Z,95367.16
2022-12-24T17:21:46.510Z,95379.94
2022-12-24T17:24:14.547Z,95366.03
2022-12-24T17:26:43.940Z,95368.94
2022-12-24T17:29:11.892Z,95357.13
2022-12-24T17:31:40.821Z,95373.06
2022-12-24T17:34:08.671Z,95369.66
2022-12-24T17:36:36.547Z,95367.28
2022-12-24T17:39:04.839Z,95375.22
2022-12-24T17:41:32.680Z,95376.34
2022-12-24T17:44:04.841Z,95377.03
2022-12-24T17:46:35.593Z,95384.09
2022-12-24T17:49:03.649Z,95378.72
2022-12-24T17:51:33.393Z,95368.22
2022-12-24T17:54:01.977Z,95363.75
2022-12-24T17:56:30.361Z,95368.50
2022-12-24T17:58:58.989Z,95372.22
2022-12-24T18:01:30.676Z,95372.38
2022-12-24T18:04:00.306Z,95376.06
2022-12-24T18:06:28.986Z,95378.47
2022-12-24T18:08:57.130Z,95368.59
2022-12-24T18:11:26.918Z,95365.97
2022-12-24T18:13:56.300Z,95376.34
2022-12-24T18:16:27.171Z,95381.63
2022-12-24T18:18:57.158Z,95381.81
2022-12-24T18:21:28.340Z,95385.31
2022-12-24T18:23:56.877Z,95381.97
2022-12-24T18:26:26.820Z,95389.00
2022-12-24T18:28:55.378Z,95396.50
2022-12-24T18:31:24.163Z,95389.63
2022-12-24T18:33:53.144Z,95392.38
2022-12-24T18:36:22.921Z,95400.31
2022-12-24T18:38:51.094Z,95394.22
2022-12-24T18:41:21.322Z,95392.97
2022-12-24T18:43:49.302Z,95384.00
2022-12-24T18:46:18.551Z,95389.63
2022-12-24T18:48:46.893Z,95425.56
2022-12-24T18:51:15.129Z,95399.91
2022-12-24T18:53:44.846Z,95389.06
2022-12-24T18:56:14.817Z,95384.75
2022-12-24T18:58:43.479Z,95389.06
2022-12-24T19:01:13.733Z,95386.06
2022-12-24T19:03:41.821Z,95388.63
2022-12-24T19:06:10.415Z,95392.78
2022-12-24T19:11:28.779Z,95397.53
2022-12-24T19:13:57.924Z,95398.31
2022-12-24T19:16:32.147Z,95415.34
2022-12-24T19:19:00.212Z,95418.88
2022-12-24T19:21:28.137Z,95420.53
2022-12-24T19:23:57.574Z,95422.03
2022-12-24T19:26:30.337Z,95419.97
2022-12-24T19:28:58.370Z,95423.16
2022-12-24T19:31:29.464Z,95424.91
2022-12-24T19:33:58.895Z,95424.91
2022-12-24T19:36:31.262Z,95419.34
2022-12-24T19:39:02.267Z,95408.69
2022-12-24T19:41:34.722Z,95419.22
2022-12-24T19:44:05.604Z,95430.88
2022-12-24T19:46:38.774Z,95407.72
2022-12-24T19:49:08.959Z,95416.50
2022-12-24T19:51:38.735Z,95422.19
2022-12-24T19:54:13.416Z,95420.44
2022-12-24T19:56:46.324Z,95419.47
2022-12-24T19:59:18.176Z,95408.19
2022-12-24T20:01:48.898Z,95426.16
2022-12-24T20:04:19.173Z,95413.75
2022-12-24T20:06:47.718Z,95390.63
2022-12-24T20:09:16.201Z,95410.84
2022-12-24T20:11:51.212Z,95402.56
2022-12-24T20:14:19.476Z,95413.41
2022-12-24T20:16:47.359Z,95406.69
2022-12-24T20:19:19.331Z,95400.19
2022-12-24T20:21:47.157Z,95403.69
2022-12-24T20:24:15.196Z,95413.75
2022-12-24T20:26:43.804Z,95400.69
2022-12-24T20:29:13.435Z,95391.31
2022-12-24T20:31:42.428Z,95421.78
2022-12-24T20:34:14.356Z,95422.59
2022-12-24T20:36:44.604Z,95431.63
2022-12-24T20:39:13.464Z,95425.09
2022-12-24T20:41:41.332Z,95406.75
2022-12-24T20:44:09.211Z,95428.72
2022-12-24T20:46:38.735Z,95414.97
2022-12-24T20:49:07.485Z,95418.31
2022-12-24T20:51:35.668Z,95418.50
2022-12-24T20:54:03.553Z,95419.47
2022-12-24T20:56:32.054Z,95407.84
2022-12-24T20:59:00.815Z,95409.06
2022-12-24T21:01:29.659Z,95414.53
2022-12-24T21:04:00.385Z,95412.22
2022-12-24T21:06:28.363Z,95416.03
2022-12-24T21:08:56.991Z,95418.94
2022-12-24T21:11:39.869Z,95416.28
2022-12-24T21:14:08.281Z,95416.91
2022-12-24T21:16:37.553Z,95419.06
2022-12-24T21:19:08.681Z,95422.75
2022-12-24T21:21:37.339Z,95420.66
2022-12-24T21:24:06.146Z,95420.19
2022-12-24T21:26:34.615Z,95420.81
2022-12-24T21:29:05.481Z,95428.19
2022-12-24T21:31:33.557Z,95413.91
2022-12-24T21:34:01.365Z,95420.53
2022-12-24T21:36:31.148Z,95416.69
2022-12-24T21:38:59.007Z,95417.94
2022-12-24T21:41:27.640Z,95419.66
2022-12-24T21:43:55.764Z,95431.94
2022-12-24T21:46:25.813Z,95441.25
2022-12-24T21:49:11.864Z,95435.44
2022-12-24T21:51:41.650Z,95445.25
2022-12-24T21:54:27.237Z,95437.56
2022-12-24T21:57:21.249Z,95440.34
2022-12-24T21:59:51.622Z,95439.53
2022-12-24T22:02:22.617Z,95453.97
2022-12-24T22:04:50.848Z,95441.53
2022-12-24T22:07:43.433Z,95444.09
2022-12-24T22:10:44.177Z,95442.03
2022-12-24T22:13:12.213Z,95442.47
2022-12-24T22:15:45.117Z,95439.28
2022-12-24T22:18:14.548Z,95441.53
2022-12-24T22:20:43.440Z,95448.69
2022-12-24T22:23:13.391Z,95448.78
2022-12-24T22:25:41.564Z,95453.97
2022-12-24T22:28:09.445Z,95433.88
2022-12-24T22:30:38.856Z,95441.09
2022-12-24T22:33:07.331Z,95441.81
2022-12-24T22:35:38.709Z,95440.94
2022-12-24T22:38:06.686Z,95445.56
2022-12-24T22:40:36.083Z,95448.22
2022-12-24T22:43:03.997Z,95452.41
2022-12-24T22:45:31.781Z,95451.63
2022-12-24T22:47:59.725Z,95458.75
2022-12-24T22:50:27.700Z,95450.19
2022-12-24T22:52:55.612Z,95467.03
2022-12-24T22:55:26.495Z,95454.25
2022-12-24T22:57:55.747Z,95457.66
2022-12-24T23:00:39.687Z,95459.53
2022-12-24T23:03:08.042Z,95442.56
2022-12-24T23:05:36.442Z,95453.69
2022-12-24T23:08:04.716Z,95456.13
2022-12-24T23:10:32.864Z,95452.13
2022-12-24T23:13:19.672Z,95454.22
2022-12-24T23:15:47.679Z,95437.84
2022-12-24T23:18:16.238Z,95438.66
2022-12-24T23:20:46.346Z,95442.16
2022-12-24T23:23:14.633Z,95448.72
2022-12-24T23:25:42.466Z,95439.03
2022-12-24T23:28:11.675Z,95444.63
2022-12-24T23:30:39.541Z,95446.06
2022-12-24T23:33:07.452Z,95446.53
2022-12-24T23:35:35.252Z,95441.91
2022-12-24T23:38:03.168Z,95437.94
2022-12-24T23:40:30.959Z,95450.38
2022-12-24T23:42:58.760Z,95451.63
2022-12-24T23:45:27.975Z,95441.56
2022-12-24T23:47:55.751Z,95454.81
2022-12-24T23:50:23.651Z,95438.66
2022-12-24T23:52:51.627Z,95461.88
2022-12-24T23:55:20.487Z,95476.69
2022-12-24T23:57:48.338Z,95489.94
